createdAt,value
2022-11-06T00:04:19.072Z,9.90
2022-11-06T00:09:22.604Z,9.75
2022-11-06T00:14:26.035Z,8.93
2022-11-06T00:19:29.505Z,9.38
2022-11-06T00:24:32.890Z,9.20
2022-11-06T00:29:36.290Z,8.98
2022-11-06T00:34:42.810Z,10.05
2022-11-06T00:39:46.292Z,10.02
2022-11-06T00:44:49.743Z,10.52
2022-11-06T00:49:53.246Z,11.00
2022-11-06T00:54:58.230Z,9.55
2022-11-06T01:00:01.570Z,9.70
2022-11-06T01:05:05.828Z,10.32
2022-11-06T01:10:09.752Z,11.15
2022-11-06T01:15:17.480Z,11.05
2022-11-06T01:20:26.851Z,11.77
2022-11-06T01:25:32.093Z,9.85
2022-11-06T01:30:39.088Z,12.13
2022-11-06T01:35:51.272Z,11.00
2022-11-06T01:40:55.163Z,12.10
2022-11-06T01:45:58.745Z,11.98
2022-11-06T01:51:02.289Z,11.65
2022-11-06T01:56:10.150Z,11.55
2022-11-06T02:01:14.185Z,12.30
2022-11-06T02:06:17.710Z,11.75
2022-11-06T02:11:21.626Z,12.43
2022-11-06T02:16:51.117Z,12.30
2022-11-06T02:22:25.597Z,12.20
2022-11-06T02:27:29.967Z,11.80
2022-11-06T02:32:42.486Z,11.65
2022-11-06T02:37:50.274Z,11.98
2022-11-06T02:42:57.273Z,11.60
2022-11-06T02:48:03.168Z,11.10
2022-11-06T02:53:09.763Z,11.05
2022-11-06T02:58:22.018Z,10.85
2022-11-06T03:03:29.393Z,11.05
2022-11-06T03:08:53.341Z,8.65
2022-11-06T03:14:29.849Z,7.70
2022-11-06T03:19:42.945Z,7.85
2022-11-06T03:25:20.719Z,6.10
2022-11-06T03:30:28.054Z,5.50
2022-11-06T03:35:44.238Z,5.40
2022-11-06T03:40:55.624Z,5.47
2022-11-06T03:46:02.439Z,5.97
2022-11-06T03:51:32.590Z,5.57
2022-11-06T03:56:49.271Z,6.45
2022-11-06T04:01:57.310Z,5.65
2022-11-06T04:07:06.257Z,5.18
2022-11-06T04:12:13.771Z,4.70
2022-11-06T04:17:17.928Z,5.32
2022-11-06T04:22:39.322Z,5.03
2022-11-06T04:27:52.027Z,5.88
2022-11-06T04:33:20.659Z,4.75
2022-11-06T04:38:48.461Z,5.72
2022-11-06T04:43:58.652Z,4.30
2022-11-06T04:49:05.661Z,4.43
2022-11-06T04:54:10.367Z,6.32
2022-11-06T04:59:17.139Z,5.22
2022-11-06T05:04:20.838Z,4.93
2022-11-06T05:09:24.795Z,4.55
2022-11-06T05:14:28.175Z,4.90
2022-11-06T05:19:32.764Z,4.72
2022-11-06T05:24:36.713Z,4.57
2022-11-06T05:29:40.045Z,5.28
2022-11-06T05:34:43.434Z,4.35
2022-11-06T05:39:46.891Z,6.10
2022-11-06T05:44:50.743Z,4.15
2022-11-06T05:49:54.669Z,4.15
2022-11-06T05:54:58.683Z,5.00
2022-11-06T06:00:05.451Z,4.07
2022-11-06T06:05:15.887Z,4.63
2022-11-06T06:10:18.940Z,4.70
2022-11-06T06:15:22.286Z,4.45
2022-11-06T06:20:25.804Z,4.63
2022-11-06T06:25:30.663Z,5.95
2022-11-06T06:30:34.082Z,5.20
2022-11-06T06:35:37.338Z,4.75
2022-11-06T06:40:40.644Z,5.35
2022-11-06T06:45:43.922Z,5.13
2022-11-06T06:50:47.296Z,5.28
2022-11-06T06:55:50.868Z,5.05
2022-11-06T07:00:54.524Z,4.93
2022-11-06T07:05:59.166Z,5.75
2022-11-06T07:11:05.488Z,5.40
2022-11-06T07:16:11.267Z,4.90
2022-11-06T07:21:14.751Z,5.32
2022-11-06T07:26:18.111Z,5.78
2022-11-06T07:31:21.543Z,5.65
2022-11-06T07:36:24.911Z,5.35
2022-11-06T07:41:28.053Z,5.53
2022-11-06T07:46:31.240Z,6.07
2022-11-06T07:51:34.974Z,5.93
2022-11-06T07:56:38.729Z,5.90
2022-11-06T08:01:42.338Z,6.22
2022-11-06T08:06:45.673Z,6.50
2022-11-06T08:11:49.042Z,6.13
2022-11-06T08:16:52.363Z,5.30
2022-11-06T08:21:56.621Z,5.75
2022-11-06T08:27:07.450Z,7.57
2022-11-06T08:32:11.415Z,6.78
2022-11-06T08:37:14.705Z,6.40
2022-11-06T08:42:18.005Z,7.55
2022-11-06T08:47:21.399Z,6.85
2022-11-06T08:52:31.218Z,7.05
2022-11-06T08:57:40.860Z,6.95
2022-11-06T09:02:44.080Z,6.45
2022-11-06T09:07:47.561Z,7.43
2022-11-06T09:12:50.865Z,6.30
2022-11-06T09:17:54.996Z,7.65
2022-11-06T09:23:03.956Z,8.10
2022-11-06T09:28:07.236Z,6.55
2022-11-06T09:33:13.453Z,7.03
2022-11-06T09:38:17.607Z,6.72
2022-11-06T09:44:09.485Z,7.53
2022-11-06T09:49:18.373Z,7.82
2022-11-06T09:54:45.880Z,6.28
2022-11-06T09:59:51.335Z,7.13
2022-11-06T10:05:08.427Z,6.30
2022-11-06T10:10:17.012Z,7.15
2022-11-06T10:15:28.907Z,7.00
2022-11-06T10:20:40.276Z,7.22
2022-11-06T10:25:45.951Z,7.10
2022-11-06T10:31:08.898Z,7.22
2022-11-06T10:36:24.898Z,7.63
2022-11-06T10:41:34.030Z,8.40
2022-11-06T10:46:39.614Z,8.50
2022-11-06T10:52:08.204Z,8.75
2022-11-06T10:57:17.562Z,8.60
2022-11-06T11:02:30.519Z,8.38
2022-11-06T11:12:38.008Z,10.80
2022-11-06T11:17:42.807Z,11.13
2022-11-06T11:22:46.199Z,12.02
2022-11-06T11:27:49.718Z,11.77
2022-11-06T11:32:54.436Z,12.15
2022-11-06T11:38:27.067Z,12.68
2022-11-06T11:43:30.846Z,12.65
2022-11-06T11:48:51.847Z,11.77
2022-11-06T11:53:59.906Z,11.95
2022-11-06T11:59:04.110Z,11.38
2022-11-06T12:04:26.045Z,9.85
2022-11-06T12:09:33.766Z,9.10
2022-11-06T12:14:37.803Z,7.68
2022-11-06T12:19:45.538Z,7.35
2022-11-06T12:25:11.847Z,7.68
2022-11-06T12:30:18.795Z,8.18
2022-11-06T12:35:31.225Z,9.23
2022-11-06T12:46:03.135Z,7.20
2022-11-06T12:51:17.436Z,8.60
2022-11-06T12:56:27.592Z,7.65
2022-11-06T13:01:58.272Z,8.32
2022-11-06T13:07:40.639Z,7.97
2022-11-06T13:13:02.996Z,8.15
2022-11-06T13:18:31.490Z,7.40
2022-11-06T13:23:48.329Z,8.68
2022-11-06T13:28:55.570Z,8.73
2022-11-06T13:34:02.557Z,8.35
2022-11-06T13:39:16.169Z,8.75
2022-11-06T13:44:21.187Z,8.35
2022-11-06T13:49:54.745Z,9.18
2022-11-06T13:55:27.797Z,7.50
2022-11-06T14:00:47.697Z,8.93
2022-11-06T14:06:22.863Z,9.45
2022-11-06T14:11:33.591Z,8.45
2022-11-06T14:16:39.812Z,8.63
2022-11-06T14:22:03.392Z,10.07
2022-11-06T14:27:12.364Z,9.85
2022-11-06T14:32:21.677Z,8.82
2022-11-06T14:37:30.815Z,8.90
2022-11-06T14:42:42.246Z,8.27
2022-11-06T14:47:54.427Z,7.70
2022-11-06T14:53:01.190Z,9.25
2022-11-06T14:58:31.420Z,8.93
2022-11-06T15:03:55.260Z,9.23
2022-11-06T15:09:08.252Z,10.15
2022-11-06T15:14:11.512Z,8.48
2022-11-06T15:19:16.330Z,8.77
2022-11-06T15:24:29.647Z,9.80
2022-11-06T15:29:37.029Z,8.57
2022-11-06T15:34:43.917Z,10.73
2022-11-06T15:40:00.924Z,10.63
2022-11-06T15:45:15.225Z,10.60
2022-11-06T15:50:30.668Z,11.10
2022-11-06T15:55:37.105Z,13.40
2022-11-06T16:00:42.084Z,11.43
2022-11-06T16:05:46.825Z,12.02
2022-11-06T16:10:50.829Z,11.63
2022-11-06T16:16:02.568Z,10.52
2022-11-06T16:21:18.885Z,11.75
2022-11-06T16:26:27.223Z,11.40
2022-11-06T16:31:31.738Z,10.68
2022-11-06T16:37:02.863Z,11.40
2022-11-06T16:42:12.178Z,9.57
2022-11-06T16:47:22.947Z,8.40
2022-11-06T16:52:34.981Z,7.68
2022-11-06T16:57:51.060Z,7.43
2022-11-06T17:03:09.245Z,7.95
2022-11-06T17:08:36.741Z,7.40
2022-11-06T17:13:46.134Z,8.13
2022-11-06T17:18:49.629Z,7.95
2022-11-06T17:23:53.945Z,8.43
2022-11-06T17:28:58.625Z,9.18
2022-11-06T17:34:02.062Z,8.50
2022-11-06T17:39:05.809Z,8.15
2022-11-06T17:44:11.389Z,8.35
2022-11-06T17:49:17.982Z,8.05
2022-11-06T17:54:24.295Z,8.07
2022-11-06T17:59:29.833Z,8.50
2022-11-06T18:04:39.250Z,8.13
2022-11-06T18:09:42.941Z,8.10
2022-11-06T18:14:46.543Z,9.00
2022-11-06T18:19:50.203Z,9.32
2022-11-06T18:24:53.593Z,7.47
2022-11-06T18:29:57.781Z,8.88
2022-11-06T18:35:04.726Z,9.25
2022-11-06T18:40:08.974Z,9.13
2022-11-06T18:45:12.411Z,9.10
2022-11-06T18:50:15.920Z,8.73
2022-11-06T18:55:19.313Z,9.38
2022-11-06T19:00:23.375Z,8.80
2022-11-06T19:05:27.470Z,8.60
2022-11-06T19:10:30.865Z,8.40
2022-11-06T19:15:34.191Z,7.97
2022-11-06T19:20:42.478Z,7.68
2022-11-06T19:25:50.831Z,7.53
2022-11-06T19:31:02.558Z,7.95
2022-11-06T19:36:06.674Z,7.03
2022-11-06T19:41:09.933Z,7.03
2022-11-06T19:46:13.220Z,8.13
2022-11-06T19:51:17.261Z,8.75
2022-11-06T19:56:20.710Z,7.57
2022-11-06T20:01:24.105Z,7.72
2022-11-06T20:06:27.462Z,6.88
2022-11-06T20:11:30.655Z,7.30
2022-11-06T20:16:34.211Z,7.03
2022-11-06T20:21:37.583Z,6.70
2022-11-06T20:26:41.641Z,7.07
2022-11-06T20:31:45.271Z,6.68
2022-11-06T20:36:48.520Z,6.90
2022-11-06T20:41:52.663Z,8.93
2022-11-06T20:46:56.413Z,6.72
2022-11-06T20:52:13.805Z,6.82
2022-11-06T20:57:17.970Z,6.40
2022-11-06T21:02:21.591Z,7.07
2022-11-06T21:07:27.586Z,7.07
2022-11-06T21:12:35.666Z,6.68
2022-11-06T21:17:42.612Z,6.80
2022-11-06T21:22:45.884Z,6.05
2022-11-06T21:27:49.358Z,7.07
2022-11-06T21:32:52.720Z,7.28
2022-11-06T21:37:56.008Z,7.63
2022-11-06T21:42:59.437Z,7.57
2022-11-06T21:48:08.013Z,6.85
2022-11-06T21:53:18.049Z,7.32
2022-11-06T21:58:21.981Z,6.65
2022-11-06T22:03:25.023Z,6.70
2022-11-06T22:08:30.692Z,6.40
2022-11-06T22:13:33.925Z,7.40
2022-11-06T22:18:37.901Z,7.00
2022-11-06T22:23:41.554Z,6.82
2022-11-06T22:28:45.613Z,6.57
2022-11-06T22:33:53.731Z,6.85
2022-11-06T22:39:08.587Z,6.18
2022-11-06T22:44:12.343Z,6.28
2022-11-06T22:49:15.911Z,6.75
2022-11-06T22:54:20.381Z,6.43
2022-11-06T22:59:23.957Z,7.07
2022-11-06T23:04:27.660Z,6.18
2022-11-06T23:09:31.226Z,6.10
2022-11-06T23:14:34.602Z,6.25
2022-11-06T23:19:38.294Z,6.10
2022-11-06T23:24:42.074Z,5.93
2022-11-06T23:29:45.159Z,7.07
2022-11-06T23:34:48.392Z,5.88
2022-11-06T23:39:52.824Z,6.82
2022-11-06T23:44:56.240Z,6.07
2022-11-06T23:50:00.021Z,6.50
2022-11-06T23:55:04.076Z,5.65
